x

Southeast Bering Sea -205nm Wnw Of Dutch Harbor, Ak (46073) Wave Buoy

8:50pm - Fri 25th Jul 2014 All times are UTC.

  • Sig Wave height 4.9ft
  • Swell Direction
  • Peak Period 8s
  • Average Period 6s
  • Wind
    11mph, 13mph gusts
  • Sea Temp 51°f
  • Air Temp 49°f
  • Sea Pressure 1023.8mb

More Historic Weather Station data

Upgrade to MSW Pro to gain access to the past 30 days of data for over 8000 Wavebouys and Weather Stations around the globe.

Join Pro

Comparision Forecast

View Surf forecast
   
Fri 07/25 8:50pm 5ft 8s 6s 11 13 mph 1023.8mb 51f 49f
7:50pm 4.5ft 9s 6s 13 16 mph 1024mb 51f 49f
6:50pm 6ft 9s 6s 13 16 mph 1024mb 51f 49f
5:50pm 6ft 9s 6s 11 16 mph 1024mb 51f 49f
4:50pm 6ft 9s 6s 11 13 mph 1023.7mb 51f 50f
3:50pm 5.5ft 9s 6s 13 16 mph 1023.6mb 51f 50f
2:50pm 6ft 8s 6s 13 18 mph 1023.5mb 51f 50f
1:50pm 5ft 8s 6s 13 16 mph 1023.7mb 51f 50f
12:50pm 5ft 8s 6s 13 16 mph 1024.1mb 51f 50f
11:50am 5ft 8s 6s 13 16 mph 1024.2mb 51f 50f
10:50am 5ft 8s 6s 11 13 mph 1024.1mb 51f 50f
9:50am 5.5ft 8s 6s 11 13 mph 1024.1mb 51f 51f
8:50am 5.5ft 8s 6s 11 13 mph 1024.1mb 51f 51f
7:50am 5ft 7s 6s 13 16 mph 1023.8mb 51f 51f
6:50am 5.5ft 7s 6s 13 16 mph 1023.4mb 51f 51f
5:50am 5ft 8s 6s 11 13 mph 1023.1mb 51f 51f
4:50am 5ft 8s 6s 13 16 mph 1022.8mb 51f 51f
3:50am 6ft 8s 6s 13 16 mph 1022.9mb 51f 51f
2:50am 5.5ft 7s 6s 16 18 mph 1022.5mb 51f 51f
1:50am 5ft 7s 6s 13 18 mph 1022.7mb 51f 51f
12:50am 4.5ft 6s 5s 16 18 mph 1022.6mb 51f 51f
Thu 07/24 11:50pm 5ft 7s 5s 16 18 mph 1022.6mb 51f 51f
10:50pm 4.5ft 6s 5s 16 18 mph 1022.5mb 51f 51f
9:50pm 5ft 7s 5s 13 18 mph 1022.5mb 51f 51f
8:50pm 5ft 7s 5s 16 20 mph 1022.4mb 51f 51f
7:50pm 5ft 7s 5s 18 22 mph 1022.3mb 51f 51f
6:50pm 5ft 6s 5s 18 22 mph 1022.4mb 51f 51f
5:50pm 5.5ft 6s 5s 16 20 mph 1022.2mb 51f 51f
4:50pm 5ft 7s 5s 18 22 mph 1022mb 51f 51f
3:50pm 5ft 6s 5s 18 25 mph 1021.9mb 51f 51f
2:50pm 5ft 6s 5s 18 20 mph 1022.2mb 51f 51f
1:50pm 5ft 6s 5s 18 20 mph 1022.2mb 51f 51f
12:50pm 4.5ft 6s 5s 20 27 mph 1022.2mb 51f 51f
11:50am 4.5ft 6s 5s 20 25 mph 1022.4mb 51f 51f
10:50am 4.5ft 5s 5s 20 22 mph 1022.6mb 51f 51f
9:50am 4.5ft 6s 4s 20 25 mph 1022.6mb 51f 51f
8:50am 4ft 5s 5s 18 20 mph 1022.6mb 51f 51f
7:50am 4ft 5s 5s 20 22 mph 1022.1mb 51f 51f
6:50am 4ft 5s 5s 18 20 mph 1021.9mb 51f 51f
5:50am 4ft 5s 5s 16 20 mph 1021.7mb 51f 51f
4:50am 3.5ft 5s 5s 16 20 mph 1021.5mb 51f 51f
3:50am 3.5ft 5s 5s 16 18 mph 1021.6mb 51f 51f
2:50am 3.5ft 7s 5s 16 20 mph 1021.9mb 51f 51f
1:50am 3.5ft 5s 5s 18 20 mph 1021.8mb 51f 51f
12:50am 3.5ft 7s 5s 16 18 mph 1022mb 51f 51f
Wed 07/23 11:50pm 3.5ft 7s 5s 13 16 mph 1022.1mb 51f 51f
10:50pm 3ft 8s 5s 16 18 mph 1022.1mb 51f 51f
9:50pm 3.5ft 5s 5s 13 16 mph 1022.1mb 51f 51f
8:50pm 3.5ft 8s 5s 11 16 mph 1022.1mb 51f 51f
7:50pm 3.5ft 5s 5s 13
mph
1021.9mb 51f 51f
6:50pm 3.5ft 5s 5s 16 18 mph 1021.7mb 51f 51f
5:50pm 3.5ft 5s 4s 16 18 mph 1021.4mb 51f 51f
4:50pm 3.5ft 5s 4s 16 18 mph 1021.2mb 51f 50f
3:50pm 3.5ft 4s 5s 16 18 mph 1020.9mb 51f 51f
2:50pm 3.5ft 4s 4s 16 18 mph 1020.7mb 51f 51f
1:50pm 3ft 4s 4s 16 18 mph 1020.5mb 51f 51f
12:50pm 2.5ft 4s 4s 13 16 mph 1020.6mb 51f 50f
11:50am 2.5ft 7s 5s 16 18 mph 1020.7mb 51f 50f
10:50am 2.5ft 7s 5s 13 18 mph 1020.6mb 51f 51f
9:50am 2.5ft 6s 5s 13
mph
1020.7mb 51f 51f
8:50am 2.5ft 4s 4s 13 16 mph 1020.6mb 51f 51f
7:50am 3ft 6s 5s 13 16 mph 1020.2mb 51f 51f
6:50am 3ft 4s 5s 13 16 mph 1019.8mb 51f 51f
5:50am 3.5ft 7s 5s 13 16 mph 1019.7mb 51f 51f
4:50am 3.5ft 7s 5s 13
mph
1019.7mb 51f 51f
3:50am 3.5ft 7s 5s 13 18 mph 1019.5mb 52f 51f
2:50am 3.5ft 6s 5s 13 16 mph 1019.1mb 52f 51f
1:50am 3.5ft 7s 5s 13 16 mph 1018.9mb 51f 51f
12:50am 3ft 8s 5s 13 16 mph 1019mb 51f 51f
Tue 07/22 11:50pm 2.5ft 7s 5s 16 18 mph 1018.6mb 51f 51f
10:50pm 2.5ft 7s 5s 13 16 mph 1018.4mb 51f 51f
9:50pm 2.5ft 14s 5s 13 16 mph 1018.2mb 52f 51f
8:50pm 2.5ft 7s 5s 13 16 mph 1017.9mb 51f 51f
7:50pm 2.5ft 13s 5s 13 16 mph 1017.6mb 52f 51f
6:50pm 2.5ft 12s 5s 11 13 mph 1017.3mb 51f 51f
5:50pm 2.5ft 14s 5s 13 16 mph 1016.9mb 51f 51f
4:50pm 3ft 6s 5s 13 16 mph 1016.4mb 52f 51f
3:50pm 3ft 6s 5s 13 16 mph 1016.3mb 51f 51f
2:50pm 3ft 7s 5s 11 13 mph 1016.3mb 51f 51f
1:50pm 3ft 8s 5s 11 13 mph 1016mb 52f 51f
12:50pm 3.5ft 6s 6s 11
mph
1015.6mb 52f 51f
11:50am 3ft 6s 6s 9 11 mph 1015.6mb 52f 51f
10:50am 2.5ft 7s 5s 9 11 mph 1015.6mb 52f 51f
9:50am 2.5ft 7s 5s 11
mph
1015.6mb 52f 51f
8:50am 2.5ft 14s 5s 4
mph
1015.6mb 52f 52f
7:50am 2.5ft 8s 5s 2 4 mph 1015.4mb 53f 52f
6:50am 2.5ft 13s 6s 2
mph
1015.2mb 53f 51f
5:50am 2.5ft 13s 6s 2
mph
1015.1mb 53f 51f
4:50am 2ft 14s 6s 2
mph
1015mb 53f 52f
3:50am 2.5ft 14s 6s 2
mph
1015mb 53f 52f
2:50am 2.5ft 12s 5s 2
mph
1015.1mb 53f 52f
1:50am 2.5ft 5s 5s 4
mph
1015mb 52f 51f
12:50am 3ft 6s 5s 4
mph
1015mb 52f 51f
Mon 07/21 11:50pm 2.5ft 6s 6s 4
mph
1015.4mb 52f 51f
10:50pm 2.5ft 13s 6s 2 4 mph 1015.7mb 52f 51f